Portland, Oregon
Traffic Map
Current Weather Conditions
Portland, Oregon
Clear
Clear
65°
Feels Like: 65°
Wind Chill: 65° Ceiling: Unl
Heat Index: 65° Visibility: 10mi
Dew Point: 57° Wind: 6mph
Humidity: 75% Direction: 340° (NNW)
Pressure: 30.06in Gusts: 0mph
Raw Report DataKPDX 280953Z 34005KT 10SM CLR 18/14 A3006 RMK AO2 SLP178 T01830139
Traffic Incident Summary
Active as of:
Severity:
Category:
InformationThere was an issue retrieving the traffic information for this location. Please try a different location or try again shortly.
Advertisements
Track Severe Weather on mobile